createdAt,value
2022-12-17T00:02:24.013Z,38.75
2022-12-17T00:05:44.749Z,37.47
2022-12-17T00:09:06.458Z,37.50
2022-12-17T00:12:26.978Z,39.20
2022-12-17T00:15:50.500Z,39.45
2022-12-17T00:19:10.907Z,39.17
2022-12-17T00:22:31.634Z,39.45
2022-12-17T00:25:53.537Z,39.92
2022-12-17T00:29:15.448Z,40.60
2022-12-17T00:32:36.167Z,41.65
2022-12-17T00:35:55.789Z,41.25
2022-12-17T00:39:17.456Z,40.85
2022-12-17T00:42:39.285Z,41.83
2022-12-17T00:45:59.750Z,41.60
2022-12-17T00:49:20.371Z,42.00
2022-12-17T00:52:40.757Z,41.67
2022-12-17T00:56:01.064Z,42.05
2022-12-17T00:59:22.833Z,42.88
2022-12-17T01:02:44.396Z,42.53
2022-12-17T01:06:04.828Z,43.28
2022-12-17T01:09:26.315Z,41.53
2022-12-17T01:12:46.800Z,41.75
2022-12-17T01:16:08.816Z,41.50
2022-12-17T01:19:40.771Z,41.08
2022-12-17T01:23:01.727Z,42.80
2022-12-17T01:26:23.652Z,41.63
2022-12-17T01:29:44.232Z,43.65
2022-12-17T01:33:06.986Z,41.92
2022-12-17T01:36:28.360Z,44.60
2022-12-17T01:39:52.329Z,44.75
2022-12-17T01:43:13.245Z,44.78
2022-12-17T01:46:34.046Z,42.72
2022-12-17T01:49:56.210Z,44.60
2022-12-17T01:53:16.019Z,44.20
2022-12-17T01:56:37.075Z,43.58
2022-12-17T02:00:02.957Z,44.70
2022-12-17T02:03:51.946Z,42.90
2022-12-17T02:07:22.518Z,45.58
2022-12-17T02:10:48.343Z,44.60
2022-12-17T02:14:17.082Z,43.97
2022-12-17T02:17:43.193Z,41.97
2022-12-17T02:21:06.739Z,42.33
2022-12-17T02:24:35.134Z,42.00
2022-12-17T02:27:57.649Z,42.33
2022-12-17T02:31:19.155Z,42.08
2022-12-17T02:34:40.210Z,42.58
2022-12-17T02:38:05.565Z,42.20
2022-12-17T02:41:31.664Z,43.17
2022-12-17T02:44:55.604Z,40.80
2022-12-17T02:48:16.876Z,44.03
2022-12-17T02:51:37.559Z,41.63
2022-12-17T02:54:58.103Z,40.95
2022-12-17T02:58:19.264Z,41.88
2022-12-17T03:01:41.342Z,43.42
2022-12-17T03:05:15.367Z,40.88
2022-12-17T03:08:44.439Z,41.33
2022-12-17T03:12:05.223Z,41.05
2022-12-17T03:15:26.282Z,40.67
2022-12-17T03:18:47.994Z,41.58
2022-12-17T03:22:08.840Z,40.63
2022-12-17T03:25:29.234Z,42.85
2022-12-17T03:28:49.754Z,43.17
2022-12-17T03:32:10.725Z,42.08
2022-12-17T03:35:32.699Z,44.05
2022-12-17T03:38:53.070Z,42.75
2022-12-17T03:42:13.336Z,43.13
2022-12-17T03:45:33.951Z,43.42
2022-12-17T03:48:59.606Z,42.03
2022-12-17T03:52:21.922Z,41.28
2022-12-17T03:55:42.506Z,42.40
2022-12-17T03:59:03.092Z,43.42
2022-12-17T04:02:23.105Z,43.13
2022-12-17T04:05:43.953Z,43.67
2022-12-17T04:09:09.079Z,44.67
2022-12-17T04:12:29.548Z,42.47
2022-12-17T04:15:52.589Z,43.75
2022-12-17T04:19:13.372Z,41.88
2022-12-17T04:22:34.436Z,45.70
2022-12-17T04:25:55.896Z,42.95
2022-12-17T04:29:16.674Z,43.95
2022-12-17T04:32:37.353Z,41.47
2022-12-17T04:35:57.854Z,43.10
2022-12-17T04:39:18.769Z,43.15
2022-12-17T04:42:41.351Z,42.17
2022-12-17T04:46:01.775Z,42.88
2022-12-17T04:49:22.986Z,45.35
2022-12-17T04:52:43.694Z,43.88
2022-12-17T04:56:03.286Z,43.45
2022-12-17T04:59:27.023Z,45.00
2022-12-17T05:02:47.928Z,43.97
2022-12-17T05:06:08.503Z,43.17
2022-12-17T05:09:28.930Z,44.53
2022-12-17T05:12:49.199Z,42.55
2022-12-17T05:16:15.711Z,45.25
2022-12-17T05:19:35.323Z,44.10
2022-12-17T05:22:55.769Z,33.47
2022-12-17T05:26:25.587Z,44.60
2022-12-17T05:29:46.257Z,42.67
2022-12-17T05:33:17.318Z,44.42
2022-12-17T05:36:37.759Z,43.90
2022-12-17T05:39:58.119Z,43.08
2022-12-17T05:43:21.414Z,43.33
2022-12-17T05:46:44.131Z,42.50
2022-12-17T05:50:13.454Z,43.20
2022-12-17T05:53:36.815Z,41.47
2022-12-17T05:56:57.663Z,43.88
2022-12-17T06:00:18.098Z,44.67
2022-12-17T06:03:38.863Z,43.60
2022-12-17T06:07:01.294Z,44.35
2022-12-17T06:10:22.546Z,43.22
2022-12-17T06:13:42.968Z,44.55
2022-12-17T06:17:03.702Z,45.13
2022-12-17T06:20:25.352Z,42.83
2022-12-17T06:23:47.060Z,43.45
2022-12-17T06:27:07.730Z,41.65
2022-12-17T06:30:29.492Z,42.60
2022-12-17T06:33:49.936Z,41.78
2022-12-17T06:37:10.555Z,41.85
2022-12-17T06:40:32.559Z,44.08
2022-12-17T06:43:52.966Z,40.92
2022-12-17T06:47:13.572Z,41.80
2022-12-17T06:50:34.239Z,42.38
2022-12-17T06:53:57.945Z,42.05
2022-12-17T06:57:18.985Z,41.42
2022-12-17T07:00:40.073Z,43.25
2022-12-17T07:04:00.481Z,43.95
2022-12-17T07:07:20.902Z,41.95
2022-12-17T07:10:41.391Z,42.67
2022-12-17T07:14:03.476Z,40.90
2022-12-17T07:17:24.235Z,43.05
2022-12-17T07:20:44.764Z,46.60
2022-12-17T07:24:05.033Z,43.28
2022-12-17T07:27:28.306Z,44.05
2022-12-17T07:30:55.641Z,42.90
2022-12-17T07:34:16.322Z,44.20
2022-12-17T07:37:36.625Z,45.50
2022-12-17T07:40:57.280Z,43.45
2022-12-17T07:44:16.918Z,45.47
2022-12-17T07:47:47.228Z,44.70
2022-12-17T07:51:08.458Z,43.40
2022-12-17T07:54:28.808Z,46.17
2022-12-17T07:57:49.288Z,43.90
2022-12-17T08:01:21.574Z,49.33
2022-12-17T08:04:43.326Z,42.00
2022-12-17T08:08:03.827Z,46.72
2022-12-17T08:11:24.320Z,43.35
2022-12-17T08:14:44.851Z,47.15
2022-12-17T08:18:05.302Z,47.85
2022-12-17T08:21:27.927Z,44.78
2022-12-17T08:24:48.375Z,44.53
2022-12-17T08:28:33.884Z,47.55
2022-12-17T08:31:55.681Z,45.78
2022-12-17T08:35:16.185Z,46.45
2022-12-17T08:38:46.324Z,46.50
2022-12-17T08:45:27.521Z,45.42
2022-12-17T08:48:47.965Z,48.70
2022-12-17T08:52:16.972Z,49.10
2022-12-17T08:55:53.502Z,48.47
2022-12-17T08:59:14.862Z,47.15
2022-12-17T09:02:35.646Z,51.25
2022-12-17T09:05:58.511Z,48.88
2022-12-17T09:09:19.114Z,49.08
2022-12-17T09:12:40.834Z,45.83
2022-12-17T09:16:01.254Z,44.90
2022-12-17T09:19:21.601Z,46.90
2022-12-17T09:22:42.029Z,47.92
2022-12-17T09:26:02.494Z,44.08
2022-12-17T09:29:36.008Z,44.97
2022-12-17T09:32:56.635Z,45.50
2022-12-17T09:36:16.915Z,44.58
2022-12-17T09:39:37.591Z,42.38
2022-12-17T09:43:03.986Z,42.20
2022-12-17T09:46:36.284Z,41.88
2022-12-17T09:49:57.634Z,44.63
2022-12-17T09:53:20.556Z,45.83
2022-12-17T09:56:43.969Z,47.03
2022-12-17T10:00:04.393Z,44.67
2022-12-17T10:03:38.126Z,43.20
2022-12-17T10:07:01.444Z,43.60
2022-12-17T10:10:36.685Z,44.63
2022-12-17T10:13:57.315Z,42.78
2022-12-17T10:17:18.038Z,42.90
2022-12-17T10:20:45.008Z,42.85
2022-12-17T10:24:05.307Z,43.90
2022-12-17T10:27:29.832Z,40.10
2022-12-17T10:30:51.582Z,41.55
2022-12-17T10:34:15.191Z,42.33
2022-12-17T10:37:39.756Z,44.92
2022-12-17T10:41:00.829Z,40.60
2022-12-17T10:44:33.051Z,41.80
2022-12-17T10:47:53.860Z,42.75
2022-12-17T10:51:14.792Z,39.85
2022-12-17T10:54:45.443Z,40.55
2022-12-17T10:58:10.966Z,38.17
2022-12-17T11:01:38.931Z,39.08
2022-12-17T11:05:10.072Z,40.80
2022-12-17T11:08:33.237Z,40.95
2022-12-17T11:11:55.960Z,37.65
2022-12-17T11:15:22.416Z,41.10
2022-12-17T11:18:46.876Z,41.00
2022-12-17T11:22:09.817Z,40.42
2022-12-17T11:25:46.260Z,43.47
2022-12-17T11:29:08.857Z,47.83
2022-12-17T11:32:54.786Z,40.80
2022-12-17T11:36:27.623Z,42.83
2022-12-17T11:40:00.286Z,43.33
2022-12-17T11:43:30.517Z,45.78
2022-12-17T11:50:39.293Z,41.92
2022-12-17T11:54:07.999Z,39.72
2022-12-17T11:57:39.148Z,40.42
2022-12-17T12:01:09.150Z,41.75
2022-12-17T12:04:43.872Z,43.60
2022-12-17T12:08:14.657Z,42.63
2022-12-17T12:11:44.829Z,41.35
2022-12-17T12:18:37.414Z,47.17
2022-12-17T12:22:09.891Z,44.03
2022-12-17T12:25:43.117Z,45.08
2022-12-17T12:29:11.967Z,43.60
2022-12-17T12:32:40.300Z,43.85
2022-12-17T12:36:01.433Z,44.28
2022-12-17T12:39:27.954Z,42.33
2022-12-17T12:42:55.483Z,40.97
2022-12-17T12:46:21.847Z,44.20
2022-12-17T12:49:48.962Z,54.80
2022-12-17T12:53:10.141Z,50.28
2022-12-17T12:56:52.070Z,48.22
2022-12-17T13:00:12.812Z,43.67
2022-12-17T13:03:47.449Z,45.75
2022-12-17T13:06:54.243Z,43.00
2022-12-17T13:09:59.026Z,45.00
2022-12-17T13:13:13.657Z,46.08
2022-12-17T13:16:32.777Z,45.60
2022-12-17T13:19:39.528Z,37.30
2022-12-17T13:22:51.623Z,46.05
2022-12-17T13:26:14.698Z,44.05
2022-12-17T13:29:30.196Z,43.58
2022-12-17T13:32:41.653Z,43.17
2022-12-17T13:35:57.094Z,42.85
2022-12-17T13:39:07.587Z,43.38
2022-12-17T13:42:20.201Z,46.08
2022-12-17T13:45:26.981Z,47.60
2022-12-17T13:48:30.454Z,44.45
2022-12-17T13:51:36.421Z,47.78
2022-12-17T13:54:39.740Z,44.63
2022-12-17T13:57:47.100Z,49.90
2022-12-17T14:00:51.912Z,47.35
2022-12-17T14:04:07.158Z,46.45
2022-12-17T14:07:11.657Z,46.78
2022-12-17T14:10:17.370Z,48.45
2022-12-17T14:13:21.824Z,48.33
2022-12-17T14:16:31.963Z,46.00
2022-12-17T14:19:38.304Z,47.83
2022-12-17T14:22:51.130Z,46.47
2022-12-17T14:25:55.086Z,45.72
2022-12-17T14:28:58.549Z,42.92
2022-12-17T14:32:24.934Z,41.35
2022-12-17T14:35:32.657Z,40.72
2022-12-17T14:38:38.711Z,45.95
2022-12-17T14:41:59.667Z,44.00
2022-12-17T14:45:05.452Z,39.67
2022-12-17T14:48:17.111Z,40.92
2022-12-17T14:51:28.769Z,38.63
2022-12-17T14:54:33.040Z,40.15
2022-12-17T14:57:36.511Z,42.25
2022-12-17T15:00:41.172Z,40.38
2022-12-17T15:03:47.241Z,41.20
2022-12-17T15:06:51.888Z,39.90
2022-12-17T15:09:56.463Z,41.35
2022-12-17T15:13:02.545Z,40.28
2022-12-17T15:16:06.737Z,41.45
2022-12-17T15:19:11.331Z,44.65
2022-12-17T15:22:17.526Z,49.60
2022-12-17T15:25:21.686Z,55.17
2022-12-17T15:28:28.190Z,45.22
2022-12-17T15:31:35.415Z,41.30
2022-12-17T15:34:40.548Z,42.75
2022-12-17T15:37:43.737Z,40.10
2022-12-17T15:40:47.066Z,41.20
2022-12-17T15:43:49.818Z,43.47
2022-12-17T15:46:53.068Z,44.17
2022-12-17T15:49:58.074Z,46.78
2022-12-17T15:53:01.625Z,44.22
2022-12-17T15:56:05.558Z,47.20
2022-12-17T15:59:11.452Z,45.78
2022-12-17T16:02:15.231Z,45.63
2022-12-17T16:05:20.857Z,40.22
2022-12-17T16:08:24.539Z,37.58
2022-12-17T16:11:27.990Z,40.30
2022-12-17T16:14:31.240Z,40.70
2022-12-17T16:17:34.799Z,40.08
2022-12-17T16:20:39.826Z,41.47
2022-12-17T16:23:43.830Z,45.70
2022-12-17T16:26:47.345Z,42.05
2022-12-17T16:29:50.660Z,46.55
2022-12-17T16:32:53.879Z,49.67
2022-12-17T16:35:58.498Z,45.47
2022-12-17T16:39:01.894Z,46.53
2022-12-17T16:42:05.765Z,49.97
2022-12-17T16:45:09.935Z,46.00
2022-12-17T16:48:14.442Z,49.08
2022-12-17T16:51:28.150Z,45.65
2022-12-17T16:54:33.631Z,50.03
2022-12-17T16:57:37.619Z,85.65
2022-12-17T17:00:41.515Z,56.42
2022-12-17T17:03:45.244Z,66.13
2022-12-17T17:06:52.046Z,53.72
2022-12-17T17:09:55.605Z,53.40
2022-12-17T17:12:59.355Z,52.40
2022-12-17T17:16:03.175Z,47.30
2022-12-17T17:19:07.964Z,52.28
2022-12-17T17:22:13.493Z,48.08
2022-12-17T17:25:17.219Z,52.10
2022-12-17T17:28:20.856Z,50.63
2022-12-17T17:31:40.233Z,49.47
2022-12-17T17:34:48.286Z,50.80
2022-12-17T17:37:52.950Z,50.80
2022-12-17T17:40:58.437Z,53.10
2022-12-17T17:44:06.946Z,47.55
2022-12-17T17:47:10.907Z,51.63
2022-12-17T17:50:14.595Z,47.53
2022-12-17T17:53:19.611Z,50.88
2022-12-17T17:56:25.174Z,57.75
2022-12-17T17:59:33.659Z,48.83
2022-12-17T18:02:37.955Z,50.23
2022-12-17T18:05:43.212Z,49.92
2022-12-17T18:08:48.853Z,43.85
2022-12-17T18:11:52.397Z,46.38
2022-12-17T18:15:13.841Z,47.58
2022-12-17T18:18:18.461Z,46.58
2022-12-17T18:21:22.534Z,41.58
2022-12-17T18:24:27.359Z,43.20
2022-12-17T18:27:30.770Z,41.28
2022-12-17T18:30:34.351Z,45.60
2022-12-17T18:33:39.918Z,39.75
2022-12-17T18:36:45.835Z,37.10
2022-12-17T18:39:50.574Z,45.28
2022-12-17T18:43:10.922Z,47.25
2022-12-17T18:46:23.049Z,51.55
2022-12-17T18:49:28.036Z,49.38
2022-12-17T18:52:31.520Z,48.60
2022-12-17T18:55:40.400Z,55.90
2022-12-17T18:58:44.448Z,53.35
2022-12-17T19:01:48.759Z,45.72
2022-12-17T19:04:52.247Z,69.65
2022-12-17T19:07:55.688Z,45.65
2022-12-17T19:11:07.257Z,47.60
2022-12-17T19:14:11.634Z,45.08
2022-12-17T19:17:15.111Z,42.67
2022-12-17T19:20:20.065Z,41.50
2022-12-17T19:23:23.397Z,55.85
2022-12-17T19:26:28.819Z,47.38
2022-12-17T19:29:32.228Z,45.53
2022-12-17T19:32:35.607Z,37.42
2022-12-17T19:35:39.796Z,42.92
2022-12-17T19:38:44.062Z,40.58
2022-12-17T19:41:57.832Z,47.88
2022-12-17T19:45:02.621Z,47.75
2022-12-17T19:48:07.060Z,47.42
2022-12-17T19:51:12.515Z,41.28
2022-12-17T19:54:16.119Z,41.45
2022-12-17T19:57:22.731Z,40.92
2022-12-17T20:00:26.351Z,43.97
2022-12-17T20:03:32.221Z,39.92
2022-12-17T20:06:36.460Z,39.30
2022-12-17T20:09:40.425Z,40.70
2022-12-17T20:12:47.355Z,43.40
2022-12-17T20:16:01.534Z,43.63
2022-12-17T20:19:10.805Z,42.92
2022-12-17T20:22:19.093Z,45.42
2022-12-17T20:25:23.773Z,45.42
2022-12-17T20:28:33.337Z,49.35
2022-12-17T20:31:38.459Z,43.38
2022-12-17T20:34:45.319Z,46.25
2022-12-17T20:37:49.029Z,50.17
2022-12-17T20:40:54.399Z,47.10
2022-12-17T20:44:06.864Z,48.45
2022-12-17T20:47:11.157Z,51.17
2022-12-17T20:50:17.192Z,50.22
2022-12-17T20:53:21.877Z,54.05
2022-12-17T20:56:28.174Z,62.28
2022-12-17T20:59:36.449Z,58.53
2022-12-17T21:02:43.345Z,75.57
2022-12-17T21:05:51.437Z,72.55
2022-12-17T21:08:57.435Z,63.65
2022-12-17T21:12:01.175Z,66.03
2022-12-17T21:15:07.937Z,77.32
2022-12-17T21:18:11.454Z,76.90
2022-12-17T21:21:17.180Z,91.50
2022-12-17T21:24:21.168Z,85.45
2022-12-17T21:27:25.710Z,82.97
2022-12-17T21:30:31.651Z,81.93
2022-12-17T21:33:35.108Z,86.88
2022-12-17T21:36:39.222Z,85.07
2022-12-17T21:39:42.715Z,76.88
2022-12-17T21:43:04.572Z,80.55
2022-12-17T21:46:10.677Z,80.57
2022-12-17T21:49:15.821Z,66.00
2022-12-17T21:52:19.595Z,84.03
2022-12-17T21:55:23.966Z,80.97
2022-12-17T21:58:27.993Z,73.53
2022-12-17T22:01:34.852Z,78.13
2022-12-17T22:04:38.597Z,79.13
2022-12-17T22:07:45.969Z,69.43
2022-12-17T22:10:52.227Z,71.97
2022-12-17T22:14:09.034Z,76.40
2022-12-17T22:17:16.144Z,67.50
2022-12-17T22:20:24.515Z,73.43
2022-12-17T22:23:31.102Z,73.65
2022-12-17T22:26:35.683Z,74.35
2022-12-17T22:29:56.467Z,82.13
2022-12-17T22:33:23.169Z,77.97
2022-12-17T22:39:05.284Z,86.35
2022-12-17T22:42:01.397Z,78.72
2022-12-17T22:44:42.779Z,84.72
2022-12-17T22:46:55.986Z,74.53
2022-12-17T22:50:00.679Z,86.90
2022-12-17T22:53:07.933Z,82.30
2022-12-17T22:56:22.761Z,86.45
2022-12-17T22:59:35.539Z,85.72
2022-12-17T23:02:38.999Z,91.10
2022-12-17T23:05:43.749Z,86.93
2022-12-17T23:08:50.541Z,84.25
2022-12-17T23:11:54.036Z,87.55
2022-12-17T23:15:00.859Z,89.80
2022-12-17T23:18:08.948Z,91.80
2022-12-17T23:21:16.542Z,90.25
2022-12-17T23:24:19.903Z,96.72
2022-12-17T23:27:23.185Z,84.10
2022-12-17T23:30:26.889Z,86.05
2022-12-17T23:33:30.352Z,86.30
2022-12-17T23:36:36.189Z,86.65
2022-12-17T23:39:39.973Z,85.25
2022-12-17T23:42:43.363Z,90.25
2022-12-17T23:45:46.815Z,84.68
2022-12-17T23:48:50.479Z,89.72
2022-12-17T23:51:55.626Z,88.00
2022-12-17T23:54:59.017Z,106.47
2022-12-17T23:58:03.437Z,77.18
